sensor_id;sensor_type;location;lat;lon;timestamp;pressure;altitude;pressure_sealevel;temperature;humidity
18678;BME280;9469;51.114;13.914;2023-04-01T00:02:23;96986.69;;;9.95;100.00
18678;BME280;9469;51.114;13.914;2023-04-01T00:07:28;96979.72;;;9.90;100.00
18678;BME280;9469;51.114;13.914;2023-04-01T00:12:39;96981.41;;;9.83;100.00
18678;BME280;9469;51.114;13.914;2023-04-01T00:17:49;96984.72;;;9.80;100.00
18678;BME280;9469;51.114;13.914;2023-04-01T00:22:55;96981.53;;;9.74;100.00
18678;BME280;9469;51.114;13.914;2023-04-01T00:28:03;96992.22;;;9.90;100.00
18678;BME280;9469;51.114;13.914;2023-04-01T00:33:08;96992.03;;;9.71;100.00
18678;BME280;9469;51.114;13.914;2023-04-01T00:38:13;96981.63;;;9.66;100.00
18678;BME280;9469;51.114;13.914;2023-04-01T00:43:22;96971.50;;;9.68;100.00
18678;BME280;9469;51.114;13.914;2023-04-01T00:48:30;96996.69;;;9.74;100.00
18678;BME280;9469;51.114;13.914;2023-04-01T00:53:43;96993.38;;;9.65;100.00
18678;BME280;9469;51.114;13.914;2023-04-01T00:58:54;96982.97;;;9.72;100.00
18678;BME280;9469;51.114;13.914;2023-04-01T01:04:06;96978.53;;;9.76;100.00
18678;BME280;9469;51.114;13.914;2023-04-01T01:09:27;96987.06;;;9.69;100.00
18678;BME280;9469;51.114;13.914;2023-04-01T01:14:49;96991.59;;;9.81;100.00
18678;BME280;9469;51.114;13.914;2023-04-01T01:20:10;96980.44;;;9.63;100.00
18678;BME280;9469;51.114;13.914;2023-04-01T01:25:34;96987.59;;;9.75;100.00
18678;BME280;9469;51.114;13.914;2023-04-01T01:30:49;96978.88;;;9.74;100.00
18678;BME280;9469;51.114;13.914;2023-04-01T01:36:02;96984.72;;;9.80;100.00
18678;BME280;9469;51.114;13.914;2023-04-01T01:41:10;96978.19;;;9.77;100.00
18678;BME280;9469;51.114;13.914;2023-04-01T01:46:18;96977.88;;;9.79;100.00
18678;BME280;9469;51.114;13.914;2023-04-01T01:51:28;96973.78;;;9.81;100.00
18678;BME280;9469;51.114;13.914;2023-04-01T01:56:38;96986.03;;;9.86;100.00
18678;BME280;9469;51.114;13.914;2023-04-01T02:01:48;96975.66;;;9.69;100.00
18678;BME280;9469;51.114;13.914;2023-04-01T02:07:00;96970.63;;;9.91;100.00
18678;BME280;9469;51.114;13.914;2023-04-01T02:12:09;96984.63;;;9.76;100.00
18678;BME280;9469;51.114;13.914;2023-04-01T02:17:17;96983.06;;;9.75;100.00
18678;BME280;9469;51.114;13.914;2023-04-01T02:22:30;96979.31;;;9.76;100.00
18678;BME280;9469;51.114;13.914;2023-04-01T02:27:37;96981.63;;;9.78;100.00
18678;BME280;9469;51.114;13.914;2023-04-01T02:32:45;96991.91;;;9.79;100.00
18678;BME280;9469;51.114;13.914;2023-04-01T02:37:54;96998.13;;;9.71;100.00
18678;BME280;9469;51.114;13.914;2023-04-01T02:43:02;97005.31;;;9.71;100.00
18678;BME280;9469;51.114;13.914;2023-04-01T02:48:08;97001.13;;;9.70;100.00
18678;BME280;9469;51.114;13.914;2023-04-01T02:53:20;96994.56;;;9.79;100.00
18678;BME280;9469;51.114;13.914;2023-04-01T02:58:26;97006.88;;;9.72;100.00
18678;BME280;9469;51.114;13.914;2023-04-01T03:03:32;97009.53;;;9.72;100.00
18678;BME280;9469;51.114;13.914;2023-04-01T03:08:40;97012.63;;;9.74;100.00
18678;BME280;9469;51.114;13.914;2023-04-01T03:13:46;97010.25;;;9.84;100.00
18678;BME280;9469;51.114;13.914;2023-04-01T03:18:51;97013.69;;;9.85;100.00
18678;BME280;9469;51.114;13.914;2023-04-01T03:24:01;97006.53;;;9.73;100.00
18678;BME280;9469;51.114;13.914;2023-04-01T03:29:08;97013.84;;;9.76;100.00
18678;BME280;9469;51.114;13.914;2023-04-01T03:34:13;97019.88;;;9.89;100.00
18678;BME280;9469;51.114;13.914;2023-04-01T03:39:22;97010.81;;;9.90;100.00
18678;BME280;9469;51.114;13.914;2023-04-01T03:44:30;97023.66;;;9.88;100.00
18678;BME280;9469;51.114;13.914;2023-04-01T03:49:41;97023.09;;;9.82;100.00
18678;BME280;9469;51.114;13.914;2023-04-01T03:54:49;97014.59;;;9.77;100.00
18678;BME280;9469;51.114;13.914;2023-04-01T03:59:54;97036.94;;;9.88;100.00
18678;BME280;9469;51.114;13.914;2023-04-01T04:05:01;97036.69;;;9.93;100.00
18678;BME280;9469;51.114;13.914;2023-04-01T04:10:10;97031.63;;;9.76;100.00
18678;BME280;9469;51.114;13.914;2023-04-01T04:15:16;97034.72;;;9.90;100.00
18678;BME280;9469;51.114;13.914;2023-04-01T04:20:21;97046.34;;;9.85;100.00
18678;BME280;9469;51.114;13.914;2023-04-01T04:25:31;97039.81;;;9.83;100.00
18678;BME280;9469;51.114;13.914;2023-04-01T04:30:36;97058.19;;;9.88;100.00
18678;BME280;9469;51.114;13.914;2023-04-01T04:35:41;97064.56;;;9.99;100.00
18678;BME280;9469;51.114;13.914;2023-04-01T04:40:49;97064.72;;;9.90;100.00
18678;BME280;9469;51.114;13.914;2023-04-01T04:45:57;97063.50;;;9.88;100.00
18678;BME280;9469;51.114;13.914;2023-04-01T04:51:03;97070.13;;;9.94;100.00
18678;BME280;9469;51.114;13.914;2023-04-01T04:56:11;97079.84;;;9.90;100.00
18678;BME280;9469;51.114;13.914;2023-04-01T05:01:23;97075.66;;;9.89;100.00
18678;BME280;9469;51.114;13.914;2023-04-01T05:06:29;97075.34;;;9.90;100.00
18678;BME280;9469;51.114;13.914;2023-04-01T05:11:38;97082.97;;;9.92;100.00
18678;BME280;9469;51.114;13.914;2023-04-01T05:16:44;97083.53;;;9.85;100.00
18678;BME280;9469;51.114;13.914;2023-04-01T05:21:50;97085.84;;;9.87;100.00
18678;BME280;9469;51.114;13.914;2023-04-01T05:26:59;97090.69;;;9.97;100.00
18678;BME280;9469;51.114;13.914;2023-04-01T05:32:07;97094.44;;;9.96;100.00
18678;BME280;9469;51.114;13.914;2023-04-01T05:37:12;97098.75;;;9.88;100.00
18678;BME280;9469;51.114;13.914;2023-04-01T05:42:20;97103.72;;;10.02;100.00
18678;BME280;9469;51.114;13.914;2023-04-01T05:47:26;97108.25;;;10.26;100.00
18678;BME280;9469;51.114;13.914;2023-04-01T05:52:31;97098.97;;;9.95;100.00
18678;BME280;9469;51.114;13.914;2023-04-01T05:57:47;97113.00;;;10.32;100.00
18678;BME280;9469;51.114;13.914;2023-04-01T06:02:53;97110.13;;;10.37;100.00
18678;BME280;9469;51.114;13.914;2023-04-01T06:08:01;97109.28;;;10.21;100.00
18678;BME280;9469;51.114;13.914;2023-04-01T06:13:27;97110.19;;;10.13;100.00
18678;BME280;9469;51.114;13.914;2023-04-01T06:18:57;97113.94;;;10.12;100.00
18678;BME280;9469;51.114;13.914;2023-04-01T06:24:17;97122.56;;;10.21;100.00
18678;BME280;9469;51.114;13.914;2023-04-01T06:29:52;97125.88;;;10.30;100.00
18678;BME280;9469;51.114;13.914;2023-04-01T06:35:21;97124.84;;;10.47;100.00
18678;BME280;9469;51.114;13.914;2023-04-01T06:41:02;97125.66;;;10.23;100.00
18678;BME280;9469;51.114;13.914;2023-04-01T06:46:19;97130.50;;;10.33;100.00
18678;BME280;9469;51.114;13.914;2023-04-01T06:51:54;97140.66;;;10.43;100.00
18678;BME280;9469;51.114;13.914;2023-04-01T06:57:28;97144.31;;;10.51;100.00
18678;BME280;9469;51.114;13.914;2023-04-01T07:02:41;97138.94;;;10.63;100.00
18678;BME280;9469;51.114;13.914;2023-04-01T07:07:52;97139.03;;;10.78;100.00
18678;BME280;9469;51.114;13.914;2023-04-01T07:13:03;97138.00;;;10.83;100.00
18678;BME280;9469;51.114;13.914;2023-04-01T07:18:34;97138.22;;;11.06;100.00
18678;BME280;9469;51.114;13.914;2023-04-01T07:23:45;97145.13;;;10.95;100.00
18678;BME280;9469;51.114;13.914;2023-04-01T07:29:15;97148.25;;;10.97;100.00
18678;BME280;9469;51.114;13.914;2023-04-01T07:34:38;97137.66;;;10.85;100.00
18678;BME280;9469;51.114;13.914;2023-04-01T07:39:55;97148.81;;;10.90;100.00
18678;BME280;9469;51.114;13.914;2023-04-01T07:45:18;97161.41;;;11.05;100.00
18678;BME280;9469;51.114;13.914;2023-04-01T07:50:34;97157.81;;;10.86;100.00
18678;BME280;9469;51.114;13.914;2023-04-01T07:55:45;97163.28;;;11.05;100.00
18678;BME280;9469;51.114;13.914;2023-04-01T08:00:55;97167.97;;;10.96;100.00
18678;BME280;9469;51.114;13.914;2023-04-01T08:06:15;97169.22;;;11.14;100.00
18678;BME280;9469;51.114;13.914;2023-04-01T08:11:31;97182.47;;;11.26;100.00
18678;BME280;9469;51.114;13.914;2023-04-01T08:17:08;97188.66;;;11.30;100.00
18678;BME280;9469;51.114;13.914;2023-04-01T08:22:27;97188.09;;;11.52;100.00
18678;BME280;9469;51.114;13.914;2023-04-01T08:27:39;97190.38;;;11.97;100.00
18678;BME280;9469;51.114;13.914;2023-04-01T08:32:50;97177.63;;;12.06;97.61
18678;BME280;9469;51.114;13.914;2023-04-01T08:38:06;97194.88;;;12.62;95.88
18678;BME280;9469;51.114;13.914;2023-04-01T08:43:24;97185.00;;;12.12;96.85
18678;BME280;9469;51.114;13.914;2023-04-01T08:49:00;97189.88;;;12.42;96.05
18678;BME280;9469;51.114;13.914;2023-04-01T09:00:13;97184.72;;;11.98;96.96
18678;BME280;9469;51.114;13.914;2023-04-01T09:06:11;97184.44;;;11.72;97.12
18678;BME280;9469;51.114;13.914;2023-04-01T09:11:33;97187.00;;;12.15;95.51
18678;BME280;9469;51.114;13.914;2023-04-01T09:23:08;97182.56;;;11.73;96.71
18678;BME280;9469;51.114;13.914;2023-04-01T09:28:20;97190.44;;;12.16;96.49
18678;BME280;9469;51.114;13.914;2023-04-01T09:34:12;97205.56;;;11.96;97.64
18678;BME280;9469;51.114;13.914;2023-04-01T09:40:09;97199.56;;;11.84;96.67
18678;BME280;9469;51.114;13.914;2023-04-01T09:45:43;97204.22;;;11.71;100.00
18678;BME280;9469;51.114;13.914;2023-04-01T09:51:02;97219.63;;;11.50;100.00
18678;BME280;9469;51.114;13.914;2023-04-01T09:56:27;97208.91;;;11.62;99.28
18678;BME280;9469;51.114;13.914;2023-04-01T10:02:02;97219.06;;;11.88;98.89
18678;BME280;9469;51.114;13.914;2023-04-01T10:07:41;97219.19;;;11.91;97.59
18678;BME280;9469;51.114;13.914;2023-04-01T10:13:34;97222.91;;;12.37;100.00
18678;BME280;9469;51.114;13.914;2023-04-01T10:36:33;97222.25;;;12.09;99.54
18678;BME280;9469;51.114;13.914;2023-04-01T10:42:23;97231.63;;;12.03;99.22
18678;BME280;9469;51.114;13.914;2023-04-01T10:54:21;97229.44;;;12.40;98.22
18678;BME280;9469;51.114;13.914;2023-04-01T11:00:21;97234.63;;;12.01;100.00
18678;BME280;9469;51.114;13.914;2023-04-01T11:12:26;97234.19;;;11.99;100.00
18678;BME280;9469;51.114;13.914;2023-04-01T11:18:03;97238.69;;;11.95;100.00
18678;BME280;9469;51.114;13.914;2023-04-01T11:23:22;97241.63;;;11.63;100.00
18678;BME280;9469;51.114;13.914;2023-04-01T11:29:01;97239.91;;;11.27;100.00
18678;BME280;9469;51.114;13.914;2023-04-01T11:34:17;97240.63;;;11.67;100.00
18678;BME280;9469;51.114;13.914;2023-04-01T11:39:32;97237.81;;;12.22;100.00
18678;BME280;9469;51.114;13.914;2023-04-01T11:45:13;97230.28;;;13.13;100.00
18678;BME280;9469;51.114;13.914;2023-04-01T11:50:27;97227.66;;;12.98;100.00
18678;BME280;9469;51.114;13.914;2023-04-01T11:55:47;97234.34;;;13.07;100.00
18678;BME280;9469;51.114;13.914;2023-04-01T12:06:44;97243.88;;;12.54;100.00
18678;BME280;9469;51.114;13.914;2023-04-01T12:12:03;97237.13;;;12.95;100.00
18678;BME280;9469;51.114;13.914;2023-04-01T12:17:30;97241.50;;;13.41;100.00
18678;BME280;9469;51.114;13.914;2023-04-01T12:22:49;97238.00;;;14.02;100.00
18678;BME280;9469;51.114;13.914;2023-04-01T12:28:06;97243.75;;;14.26;100.00
18678;BME280;9469;51.114;13.914;2023-04-01T12:33:32;97234.38;;;14.62;99.01
18678;BME280;9469;51.114;13.914;2023-04-01T12:38:55;97233.84;;;14.04;95.14
18678;BME280;9469;51.114;13.914;2023-04-01T12:44:13;97244.75;;;13.73;96.02
18678;BME280;9469;51.114;13.914;2023-04-01T13:00:53;97252.81;;;13.35;92.27
18678;BME280;9469;51.114;13.914;2023-04-01T13:06:25;97261.72;;;13.61;92.28
18678;BME280;9469;51.114;13.914;2023-04-01T13:11:47;97254.16;;;13.63;90.95
18678;BME280;9469;51.114;13.914;2023-04-01T13:17:08;97254.00;;;13.56;90.12
18678;BME280;9469;51.114;13.914;2023-04-01T13:22:21;97260.38;;;13.94;87.54
18678;BME280;9469;51.114;13.914;2023-04-01T13:27:33;97251.06;;;14.07;89.57
18678;BME280;9469;51.114;13.914;2023-04-01T13:32:48;97251.00;;;14.26;88.27
18678;BME280;9469;51.114;13.914;2023-04-01T13:43:41;97259.94;;;14.11;85.16
18678;BME280;9469;51.114;13.914;2023-04-01T13:54:58;97259.38;;;13.79;88.52
18678;BME280;9469;51.114;13.914;2023-04-01T14:00:27;97261.94;;;13.72;93.60
18678;BME280;9469;51.114;13.914;2023-04-01T14:06:08;97273.84;;;13.36;97.20
18678;BME280;9469;51.114;13.914;2023-04-01T14:11:19;97277.97;;;13.15;92.99
18678;BME280;9469;51.114;13.914;2023-04-01T14:16:55;97284.94;;;13.57;88.30
18678;BME280;9469;51.114;13.914;2023-04-01T14:22:12;97277.84;;;13.88;91.83
18678;BME280;9469;51.114;13.914;2023-04-01T14:27:40;97288.00;;;13.79;92.33
18678;BME280;9469;51.114;13.914;2023-04-01T14:32:51;97290.28;;;13.99;91.67
18678;BME280;9469;51.114;13.914;2023-04-01T14:38:19;97292.09;;;13.73;92.84
18678;BME280;9469;51.114;13.914;2023-04-01T14:43:47;97306.56;;;13.91;95.87
18678;BME280;9469;51.114;13.914;2023-04-01T14:48:57;97313.06;;;13.93;97.54
18678;BME280;9469;51.114;13.914;2023-04-01T14:54:13;97301.31;;;13.98;96.95
18678;BME280;9469;51.114;13.914;2023-04-01T14:59:28;97293.25;;;14.17;95.45
18678;BME280;9469;51.114;13.914;2023-04-01T15:04:44;97310.34;;;13.90;94.73
18678;BME280;9469;51.114;13.914;2023-04-01T15:10:04;97312.66;;;13.91;94.55
18678;BME280;9469;51.114;13.914;2023-04-01T15:15:30;97305.78;;;13.71;90.96
18678;BME280;9469;51.114;13.914;2023-04-01T15:20:53;97309.06;;;13.61;92.46
18678;BME280;9469;51.114;13.914;2023-04-01T15:26:17;97319.25;;;13.36;93.47
18678;BME280;9469;51.114;13.914;2023-04-01T15:31:30;97323.03;;;13.35;94.52
18678;BME280;9469;51.114;13.914;2023-04-01T15:36:42;97321.28;;;13.43;96.75
18678;BME280;9469;51.114;13.914;2023-04-01T15:42:07;97326.81;;;13.92;96.89
18678;BME280;9469;51.114;13.914;2023-04-01T15:47:32;97337.91;;;13.94;98.03
18678;BME280;9469;51.114;13.914;2023-04-01T15:52:43;97334.91;;;13.95;99.11
18678;BME280;9469;51.114;13.914;2023-04-01T15:58:06;97336.09;;;14.20;95.94
18678;BME280;9469;51.114;13.914;2023-04-01T16:03:35;97347.22;;;14.00;94.38
18678;BME280;9469;51.114;13.914;2023-04-01T16:14:34;97359.31;;;13.55;83.33
18678;BME280;9469;51.114;13.914;2023-04-01T16:19:51;97357.69;;;13.32;84.72
18678;BME280;9469;51.114;13.914;2023-04-01T16:25:14;97377.44;;;13.46;84.80
18678;BME280;9469;51.114;13.914;2023-04-01T16:30:34;97381.16;;;13.07;85.71
18678;BME280;9469;51.114;13.914;2023-04-01T16:35:47;97370.84;;;12.90;87.28
18678;BME280;9469;51.114;13.914;2023-04-01T16:41:09;97389.16;;;13.42;86.11
18678;BME280;9469;51.114;13.914;2023-04-01T16:46:34;97396.59;;;13.14;87.53
18678;BME280;9469;51.114;13.914;2023-04-01T16:51:46;97400.59;;;13.23;88.91
18678;BME280;9469;51.114;13.914;2023-04-01T16:56:55;97398.28;;;13.22;90.40
18678;BME280;9469;51.114;13.914;2023-04-01T17:02:10;97418.53;;;13.23;89.46
18678;BME280;9469;51.114;13.914;2023-04-01T17:07:25;97430.06;;;13.27;94.27
18678;BME280;9469;51.114;13.914;2023-04-01T17:12:39;97434.28;;;13.12;92.15
18678;BME280;9469;51.114;13.914;2023-04-01T17:17:59;97442.81;;;13.02;95.57
18678;BME280;9469;51.114;13.914;2023-04-01T17:23:28;97448.56;;;13.04;99.73
18678;BME280;9469;51.114;13.914;2023-04-01T17:28:44;97443.81;;;12.51;100.00
18678;BME280;9469;51.114;13.914;2023-04-01T17:34:12;97462.81;;;12.49;100.00
18678;BME280;9469;51.114;13.914;2023-04-01T17:39:30;97462.94;;;12.53;100.00
18678;BME280;9469;51.114;13.914;2023-04-01T17:44:51;97477.91;;;12.57;100.00
18678;BME280;9469;51.114;13.914;2023-04-01T17:50:13;97480.81;;;12.52;100.00
18678;BME280;9469;51.114;13.914;2023-04-01T17:55:37;97482.94;;;12.47;100.00
18678;BME280;9469;51.114;13.914;2023-04-01T18:00:57;97481.59;;;12.53;100.00
18678;BME280;9469;51.114;13.914;2023-04-01T18:06:17;97485.22;;;12.33;100.00
18678;BME280;9469;51.114;13.914;2023-04-01T18:11:34;97487.13;;;12.04;100.00
18678;BME280;9469;51.114;13.914;2023-04-01T18:16:51;97483.38;;;11.93;100.00
18678;BME280;9469;51.114;13.914;2023-04-01T18:22:10;97500.25;;;11.97;100.00
18678;BME280;9469;51.114;13.914;2023-04-01T18:27:29;97504.28;;;11.79;100.00
18678;BME280;9469;51.114;13.914;2023-04-01T18:32:42;97523.38;;;11.81;100.00
18678;BME280;9469;51.114;13.914;2023-04-01T18:37:57;97518.59;;;11.63;100.00
18678;BME280;9469;51.114;13.914;2023-04-01T18:43:14;97537.56;;;11.49;100.00
18678;BME280;9469;51.114;13.914;2023-04-01T18:48:40;97546.78;;;11.51;100.00
18678;BME280;9469;51.114;13.914;2023-04-01T18:53:53;97541.91;;;11.66;100.00
18678;BME280;9469;51.114;13.914;2023-04-01T18:59:06;97545.34;;;11.54;100.00
18678;BME280;9469;51.114;13.914;2023-04-01T19:04:28;97552.25;;;11.55;100.00
18678;BME280;9469;51.114;13.914;2023-04-01T19:09:46;97551.00;;;11.40;100.00
18678;BME280;9469;51.114;13.914;2023-04-01T19:14:59;97566.66;;;11.30;100.00
18678;BME280;9469;51.114;13.914;2023-04-01T19:20:15;97566.31;;;11.31;100.00
18678;BME280;9469;51.114;13.914;2023-04-01T19:25:29;97569.75;;;11.32;100.00
18678;BME280;9469;51.114;13.914;2023-04-01T19:30:48;97574.66;;;11.42;100.00
18678;BME280;9469;51.114;13.914;2023-04-01T19:36:03;97585.16;;;11.26;100.00
18678;BME280;9469;51.114;13.914;2023-04-01T19:41:28;97584.94;;;11.31;100.00
18678;BME280;9469;51.114;13.914;2023-04-01T19:46:41;97601.00;;;11.11;100.00
18678;BME280;9469;51.114;13.914;2023-04-01T19:51:56;97605.91;;;11.21;100.00
18678;BME280;9469;51.114;13.914;2023-04-01T19:57:17;97605.34;;;10.82;100.00
18678;BME280;9469;51.114;13.914;2023-04-01T20:02:35;97617.81;;;10.70;100.00
18678;BME280;9469;51.114;13.914;2023-04-01T20:07:45;97621.84;;;10.76;100.00
18678;BME280;9469;51.114;13.914;2023-04-01T20:13:01;97619.38;;;10.71;100.00
18678;BME280;9469;51.114;13.914;2023-04-01T20:18:14;97634.44;;;10.88;100.00
18678;BME280;9469;51.114;13.914;2023-04-01T20:23:35;97639.25;;;10.86;100.00
18678;BME280;9469;51.114;13.914;2023-04-01T20:28:56;97640.38;;;10.85;100.00
18678;BME280;9469;51.114;13.914;2023-04-01T20:34:21;97639.59;;;10.51;100.00
18678;BME280;9469;51.114;13.914;2023-04-01T20:39:44;97637.56;;;10.48;100.00
18678;BME280;9469;51.114;13.914;2023-04-01T20:45:14;97649.25;;;10.56;100.00
18678;BME280;9469;51.114;13.914;2023-04-01T20:50:26;97654.41;;;10.52;100.00
18678;BME280;9469;51.114;13.914;2023-04-01T21:01:34;97658.16;;;10.72;100.00
18678;BME280;9469;51.114;13.914;2023-04-01T21:06:57;97668.31;;;10.78;100.00
18678;BME280;9469;51.114;13.914;2023-04-01T21:12:12;97685.91;;;11.04;100.00
18678;BME280;9469;51.114;13.914;2023-04-01T21:17:34;97681.25;;;11.01;100.00
18678;BME280;9469;51.114;13.914;2023-04-01T21:22:58;97689.69;;;10.61;100.00
18678;BME280;9469;51.114;13.914;2023-04-01T21:28:28;97701.38;;;10.19;100.00
18678;BME280;9469;51.114;13.914;2023-04-01T21:34:06;97719.84;;;10.16;100.00
18678;BME280;9469;51.114;13.914;2023-04-01T21:39:27;97714.69;;;10.19;100.00
18678;BME280;9469;51.114;13.914;2023-04-01T21:44:51;97715.09;;;9.92;100.00
18678;BME280;9469;51.114;13.914;2023-04-01T21:50:25;97729.13;;;10.01;100.00
18678;BME280;9469;51.114;13.914;2023-04-01T21:56:02;97734.75;;;9.91;100.00
18678;BME280;9469;51.114;13.914;2023-04-01T22:01:31;97739.78;;;9.92;100.00
18678;BME280;9469;51.114;13.914;2023-04-01T22:06:50;97744.53;;;9.70;100.00
18678;BME280;9469;51.114;13.914;2023-04-01T22:12:03;97751.09;;;9.64;100.00
18678;BME280;9469;51.114;13.914;2023-04-01T22:17:23;97766.59;;;9.53;100.00
18678;BME280;9469;51.114;13.914;2023-04-01T22:22:49;97765.81;;;9.53;100.00
18678;BME280;9469;51.114;13.914;2023-04-01T22:28:02;97771.31;;;9.30;100.00
18678;BME280;9469;51.114;13.914;2023-04-01T22:33:14;97770.09;;;9.02;100.00
18678;BME280;9469;51.114;13.914;2023-04-01T22:38:40;97793.16;;;9.19;100.00
18678;BME280;9469;51.114;13.914;2023-04-01T22:43:50;97790.19;;;9.03;100.00
18678;BME280;9469;51.114;13.914;2023-04-01T22:49:00;97800.94;;;8.98;100.00
18678;BME280;9469;51.114;13.914;2023-04-01T22:54:21;97798.28;;;8.98;100.00
18678;BME280;9469;51.114;13.914;2023-04-01T22:59:32;97809.09;;;8.93;100.00
18678;BME280;9469;51.114;13.914;2023-04-01T23:04:42;97819.38;;;8.95;100.00
18678;BME280;9469;51.114;13.914;2023-04-01T23:09:56;97819.84;;;8.88;100.00
18678;BME280;9469;51.114;13.914;2023-04-01T23:15:11;97824.94;;;8.68;100.00
18678;BME280;9469;51.114;13.914;2023-04-01T23:20:26;97845.50;;;8.62;100.00
18678;BME280;9469;51.114;13.914;2023-04-01T23:25:44;97843.16;;;8.60;100.00
18678;BME280;9469;51.114;13.914;2023-04-01T23:30:55;97859.81;;;8.52;100.00
18678;BME280;9469;51.114;13.914;2023-04-01T23:36:02;97863.66;;;8.38;100.00
18678;BME280;9469;51.114;13.914;2023-04-01T23:41:22;97866.69;;;8.23;100.00
18678;BME280;9469;51.114;13.914;2023-04-01T23:46:30;97874.63;;;8.23;100.00
18678;BME280;9469;51.114;13.914;2023-04-01T23:51:38;97891.50;;;8.27;100.00
18678;BME280;9469;51.114;13.914;2023-04-01T23:56:50;97905.44;;;8.19;100.00
